sensor_id;sensor_type;location;lat;lon;timestamp;pressure;altitude;pressure_sealevel;temperature;humidity
54465;BME280;40374;49.480;20.016;2023-05-09T00:01:49;95801.03;;;2.57;100.00
54465;BME280;40374;49.480;20.016;2023-05-09T00:04:17;95823.06;;;2.71;100.00
54465;BME280;40374;49.480;20.016;2023-05-09T00:06:46;95820.63;;;2.70;100.00
54465;BME280;40374;49.480;20.016;2023-05-09T00:09:15;95812.25;;;2.66;100.00
54465;BME280;40374;49.480;20.016;2023-05-09T00:11:45;95815.94;;;2.65;100.00
54465;BME280;40374;49.480;20.016;2023-05-09T00:14:13;95816.16;;;2.57;100.00
54465;BME280;40374;49.480;20.016;2023-05-09T00:16:41;95812.72;;;2.43;100.00
54465;BME280;40374;49.480;20.016;2023-05-09T00:19:08;95809.47;;;2.34;100.00
54465;BME280;40374;49.480;20.016;2023-05-09T00:21:35;95812.94;;;2.28;100.00
54465;BME280;40374;49.480;20.016;2023-05-09T00:24:04;95802.53;;;2.33;100.00
54465;BME280;40374;49.480;20.016;2023-05-09T00:26:32;95801.53;;;2.28;100.00
54465;BME280;40374;49.480;20.016;2023-05-09T00:28:59;95797.84;;;2.35;100.00
54465;BME280;40374;49.480;20.016;2023-05-09T00:31:28;95805.53;;;2.57;100.00
54465;BME280;40374;49.480;20.016;2023-05-09T00:33:55;95800.63;;;2.54;100.00
54465;BME280;40374;49.480;20.016;2023-05-09T00:36:23;95805.56;;;2.50;100.00
54465;BME280;40374;49.480;20.016;2023-05-09T00:38:50;95779.41;;;2.47;100.00
54465;BME280;40374;49.480;20.016;2023-05-09T00:49:50;95783.81;;;1.75;100.00
54465;BME280;40374;49.480;20.016;2023-05-09T00:52:18;95786.41;;;2.21;100.00
54465;BME280;40374;49.480;20.016;2023-05-09T00:54:50;95772.72;;;2.38;100.00
54465;BME280;40374;49.480;20.016;2023-05-09T00:57:19;95775.88;;;2.73;100.00
54465;BME280;40374;49.480;20.016;2023-05-09T00:59:47;95778.00;;;3.03;100.00
54465;BME280;40374;49.480;20.016;2023-05-09T01:02:18;95787.28;;;3.25;100.00
54465;BME280;40374;49.480;20.016;2023-05-09T01:04:46;95781.97;;;3.25;100.00
54465;BME280;40374;49.480;20.016;2023-05-09T01:07:44;95783.13;;;3.30;100.00
54465;BME280;40374;49.480;20.016;2023-05-09T01:10:27;95778.88;;;3.29;100.00
54465;BME280;40374;49.480;20.016;2023-05-09T01:13:03;95778.09;;;3.21;100.00
54465;BME280;40374;49.480;20.016;2023-05-09T01:15:39;95779.25;;;3.32;100.00
54465;BME280;40374;49.480;20.016;2023-05-09T01:18:27;95770.13;;;3.21;100.00
54465;BME280;40374;49.480;20.016;2023-05-09T01:21:14;95779.44;;;3.37;100.00
54465;BME280;40374;49.480;20.016;2023-05-09T01:26:20;95771.53;;;3.24;100.00
54465;BME280;40374;49.480;20.016;2023-05-09T01:28:59;95764.13;;;3.33;100.00
54465;BME280;40374;49.480;20.016;2023-05-09T01:31:32;95772.44;;;3.43;100.00
54465;BME280;40374;49.480;20.016;2023-05-09T01:34:01;95766.69;;;3.46;100.00
54465;BME280;40374;49.480;20.016;2023-05-09T01:36:31;95762.63;;;3.43;100.00
54465;BME280;40374;49.480;20.016;2023-05-09T01:39:01;95757.09;;;3.45;100.00
54465;BME280;40374;49.480;20.016;2023-05-09T01:41:33;95760.94;;;3.49;100.00
54465;BME280;40374;49.480;20.016;2023-05-09T01:44:05;95753.97;;;3.48;100.00
54465;BME280;40374;49.480;20.016;2023-05-09T01:46:35;95749.09;;;3.45;100.00
54465;BME280;40374;49.480;20.016;2023-05-09T01:49:06;95738.53;;;3.32;100.00
54465;BME280;40374;49.480;20.016;2023-05-09T01:51:35;95752.28;;;3.29;100.00
54465;BME280;40374;49.480;20.016;2023-05-09T01:54:05;95742.53;;;3.16;100.00
54465;BME280;40374;49.480;20.016;2023-05-09T01:56:33;95741.16;;;3.07;100.00
54465;BME280;40374;49.480;20.016;2023-05-09T01:59:04;95746.53;;;2.93;100.00
54465;BME280;40374;49.480;20.016;2023-05-09T02:01:33;95742.47;;;2.91;100.00
54465;BME280;40374;49.480;20.016;2023-05-09T02:04:03;95750.63;;;2.96;100.00
54465;BME280;40374;49.480;20.016;2023-05-09T02:06:31;95749.16;;;3.00;100.00
54465;BME280;40374;49.480;20.016;2023-05-09T02:09:00;95746.31;;;3.01;100.00
54465;BME280;40374;49.480;20.016;2023-05-09T02:11:29;95752.97;;;3.17;100.00
54465;BME280;40374;49.480;20.016;2023-05-09T02:13:56;95749.63;;;3.29;100.00
54465;BME280;40374;49.480;20.016;2023-05-09T02:16:24;95745.50;;;3.33;100.00
54465;BME280;40374;49.480;20.016;2023-05-09T02:18:51;95747.31;;;3.39;100.00
54465;BME280;40374;49.480;20.016;2023-05-09T02:21:19;95747.38;;;3.57;100.00
54465;BME280;40374;49.480;20.016;2023-05-09T02:23:46;95735.88;;;3.63;100.00
54465;BME280;40374;49.480;20.016;2023-05-09T02:26:14;95739.91;;;3.73;100.00
54465;BME280;40374;49.480;20.016;2023-05-09T02:28:43;95751.28;;;3.80;100.00
54465;BME280;40374;49.480;20.016;2023-05-09T02:31:11;95749.78;;;3.65;100.00
54465;BME280;40374;49.480;20.016;2023-05-09T02:33:41;95750.91;;;3.51;100.00
54465;BME280;40374;49.480;20.016;2023-05-09T02:36:09;95747.81;;;3.54;100.00
54465;BME280;40374;49.480;20.016;2023-05-09T02:38:36;95728.91;;;3.62;100.00
54465;BME280;40374;49.480;20.016;2023-05-09T02:41:04;95733.25;;;3.82;100.00
54465;BME280;40374;49.480;20.016;2023-05-09T02:43:31;95732.84;;;3.85;100.00
54465;BME280;40374;49.480;20.016;2023-05-09T02:45:59;95739.16;;;3.84;100.00
54465;BME280;40374;49.480;20.016;2023-05-09T02:48:26;95716.69;;;3.80;100.00
54465;BME280;40374;49.480;20.016;2023-05-09T02:50:53;95740.91;;;3.97;100.00
54465;BME280;40374;49.480;20.016;2023-05-09T02:53:21;95737.22;;;3.98;100.00
54465;BME280;40374;49.480;20.016;2023-05-09T02:55:48;95732.72;;;3.98;100.00
54465;BME280;40374;49.480;20.016;2023-05-09T02:58:16;95735.63;;;3.90;100.00
54465;BME280;40374;49.480;20.016;2023-05-09T03:00:43;95738.53;;;3.89;100.00
54465;BME280;40374;49.480;20.016;2023-05-09T03:03:14;95730.34;;;4.09;100.00
54465;BME280;40374;49.480;20.016;2023-05-09T03:05:44;95727.28;;;4.12;100.00
54465;BME280;40374;49.480;20.016;2023-05-09T03:08:12;95732.88;;;4.22;100.00
54465;BME280;40374;49.480;20.016;2023-05-09T03:10:39;95728.69;;;4.33;100.00
54465;BME280;40374;49.480;20.016;2023-05-09T03:13:07;95728.75;;;4.44;100.00
54465;BME280;40374;49.480;20.016;2023-05-09T03:15:35;95725.66;;;4.47;100.00
54465;BME280;40374;49.480;20.016;2023-05-09T03:18:04;95726.47;;;4.48;100.00
54465;BME280;40374;49.480;20.016;2023-05-09T03:20:31;95725.97;;;4.58;100.00
54465;BME280;40374;49.480;20.016;2023-05-09T03:22:59;95720.75;;;4.63;100.00
54465;BME280;40374;49.480;20.016;2023-05-09T03:25:26;95727.56;;;4.59;100.00
54465;BME280;40374;49.480;20.016;2023-05-09T03:27:53;95729.06;;;4.55;100.00
54465;BME280;40374;49.480;20.016;2023-05-09T03:30:21;95725.06;;;4.45;100.00
54465;BME280;40374;49.480;20.016;2023-05-09T03:32:50;95727.72;;;4.45;100.00
54465;BME280;40374;49.480;20.016;2023-05-09T03:35:18;95736.63;;;4.58;100.00
54465;BME280;40374;49.480;20.016;2023-05-09T03:37:45;95731.84;;;4.60;100.00
54465;BME280;40374;49.480;20.016;2023-05-09T03:40:13;95736.97;;;4.43;100.00
54465;BME280;40374;49.480;20.016;2023-05-09T03:42:47;95723.72;;;4.55;100.00
54465;BME280;40374;49.480;20.016;2023-05-09T03:45:15;95735.41;;;4.72;100.00
54465;BME280;40374;49.480;20.016;2023-05-09T03:47:44;95738.50;;;4.87;100.00
54465;BME280;40374;49.480;20.016;2023-05-09T03:50:12;95738.44;;;4.76;100.00
54465;BME280;40374;49.480;20.016;2023-05-09T03:52:40;95736.28;;;4.84;100.00
54465;BME280;40374;49.480;20.016;2023-05-09T03:55:08;95739.72;;;5.03;100.00
54465;BME280;40374;49.480;20.016;2023-05-09T03:57:37;95729.53;;;5.00;100.00
54465;BME280;40374;49.480;20.016;2023-05-09T04:00:05;95739.88;;;5.08;100.00
54465;BME280;40374;49.480;20.016;2023-05-09T04:02:50;95737.53;;;5.12;100.00
54465;BME280;40374;49.480;20.016;2023-05-09T04:05:28;95731.69;;;5.22;100.00
54465;BME280;40374;49.480;20.016;2023-05-09T04:07:57;95738.72;;;5.16;100.00
54465;BME280;40374;49.480;20.016;2023-05-09T04:10:24;95730.78;;;5.28;100.00
54465;BME280;40374;49.480;20.016;2023-05-09T04:12:52;95728.91;;;5.28;100.00
54465;BME280;40374;49.480;20.016;2023-05-09T04:15:20;95738.81;;;5.40;100.00
54465;BME280;40374;49.480;20.016;2023-05-09T04:17:48;95734.31;;;5.52;100.00
54465;BME280;40374;49.480;20.016;2023-05-09T04:20:15;95737.81;;;5.64;100.00
54465;BME280;40374;49.480;20.016;2023-05-09T04:22:43;95729.81;;;5.64;100.00
54465;BME280;40374;49.480;20.016;2023-05-09T04:25:14;95731.13;;;5.74;100.00
54465;BME280;40374;49.480;20.016;2023-05-09T04:27:44;95731.13;;;5.85;100.00
54465;BME280;40374;49.480;20.016;2023-05-09T04:30:12;95729.53;;;5.96;100.00
54465;BME280;40374;49.480;20.016;2023-05-09T04:32:42;95733.25;;;6.19;100.00
54465;BME280;40374;49.480;20.016;2023-05-09T04:35:12;95734.06;;;6.31;100.00
54465;BME280;40374;49.480;20.016;2023-05-09T04:37:44;95716.38;;;6.54;100.00
54465;BME280;40374;49.480;20.016;2023-05-09T04:40:12;95726.66;;;6.74;100.00
54465;BME280;40374;49.480;20.016;2023-05-09T04:42:46;95729.47;;;6.79;100.00
54465;BME280;40374;49.480;20.016;2023-05-09T04:45:13;95722.22;;;6.91;100.00
54465;BME280;40374;49.480;20.016;2023-05-09T04:47:42;95713.47;;;6.96;100.00
54465;BME280;40374;49.480;20.016;2023-05-09T04:50:10;95721.59;;;7.01;100.00
54465;BME280;40374;49.480;20.016;2023-05-09T04:52:37;95720.19;;;7.10;100.00
54465;BME280;40374;49.480;20.016;2023-05-09T04:55:05;95717.03;;;7.30;100.00
54465;BME280;40374;49.480;20.016;2023-05-09T04:57:37;95724.13;;;7.36;100.00
54465;BME280;40374;49.480;20.016;2023-05-09T05:00:07;95726.44;;;7.32;100.00
54465;BME280;40374;49.480;20.016;2023-05-09T05:02:37;95718.22;;;7.22;100.00
54465;BME280;40374;49.480;20.016;2023-05-09T05:05:05;95716.31;;;7.35;100.00
54465;BME280;40374;49.480;20.016;2023-05-09T05:07:41;95722.00;;;7.38;100.00
54465;BME280;40374;49.480;20.016;2023-05-09T05:10:11;95713.09;;;7.66;100.00
54465;BME280;40374;49.480;20.016;2023-05-09T05:12:44;95714.25;;;7.70;100.00
54465;BME280;40374;49.480;20.016;2023-05-09T05:15:13;95719.69;;;7.76;100.00
54465;BME280;40374;49.480;20.016;2023-05-09T05:17:44;95711.16;;;7.79;100.00
54465;BME280;40374;49.480;20.016;2023-05-09T05:20:12;95717.25;;;7.91;100.00
54465;BME280;40374;49.480;20.016;2023-05-09T05:22:43;95715.88;;;8.05;100.00
54465;BME280;40374;49.480;20.016;2023-05-09T05:25:11;95697.06;;;8.00;100.00
54465;BME280;40374;49.480;20.016;2023-05-09T05:27:40;95703.84;;;8.08;100.00
54465;BME280;40374;49.480;20.016;2023-05-09T05:30:10;95697.03;;;8.17;100.00
54465;BME280;40374;49.480;20.016;2023-05-09T05:32:38;95701.91;;;8.03;100.00
54465;BME280;40374;49.480;20.016;2023-05-09T05:35:06;95682.75;;;8.11;100.00
54465;BME280;40374;49.480;20.016;2023-05-09T05:37:37;95704.28;;;8.39;100.00
54465;BME280;40374;49.480;20.016;2023-05-09T05:40:05;95691.66;;;8.34;100.00
54465;BME280;40374;49.480;20.016;2023-05-09T05:42:34;95701.97;;;8.42;100.00
54465;BME280;40374;49.480;20.016;2023-05-09T05:45:02;95703.16;;;8.51;100.00
54465;BME280;40374;49.480;20.016;2023-05-09T05:47:37;95699.84;;;8.66;100.00
54465;BME280;40374;49.480;20.016;2023-05-09T05:50:05;95699.72;;;9.00;100.00
54465;BME280;40374;49.480;20.016;2023-05-09T05:52:39;95692.84;;;9.09;100.00
54465;BME280;40374;49.480;20.016;2023-05-09T05:55:11;95684.88;;;9.20;100.00
54465;BME280;40374;49.480;20.016;2023-05-09T05:57:39;95695.38;;;9.21;100.00
54465;BME280;40374;49.480;20.016;2023-05-09T06:00:09;95671.22;;;9.21;100.00
54465;BME280;40374;49.480;20.016;2023-05-09T06:02:46;95678.56;;;9.31;100.00
54465;BME280;40374;49.480;20.016;2023-05-09T06:05:36;95685.31;;;9.33;100.00
54465;BME280;40374;49.480;20.016;2023-05-09T06:08:04;95689.53;;;9.24;100.00
54465;BME280;40374;49.480;20.016;2023-05-09T06:10:32;95685.44;;;9.22;100.00
54465;BME280;40374;49.480;20.016;2023-05-09T06:12:59;95677.47;;;9.27;100.00
54465;BME280;40374;49.480;20.016;2023-05-09T06:15:27;95684.75;;;9.31;100.00
54465;BME280;40374;49.480;20.016;2023-05-09T06:17:55;95681.28;;;9.36;100.00
54465;BME280;40374;49.480;20.016;2023-05-09T06:20:22;95692.75;;;9.53;100.00
54465;BME280;40374;49.480;20.016;2023-05-09T06:22:50;95691.47;;;9.61;100.00
54465;BME280;40374;49.480;20.016;2023-05-09T06:25:17;95681.41;;;9.79;100.00
54465;BME280;40374;49.480;20.016;2023-05-09T06:27:45;95667.94;;;9.73;100.00
54465;BME280;40374;49.480;20.016;2023-05-09T06:30:12;95680.91;;;9.87;100.00
54465;BME280;40374;49.480;20.016;2023-05-09T06:32:52;95679.69;;;10.00;100.00
54465;BME280;40374;49.480;20.016;2023-05-09T06:35:20;95685.00;;;9.94;100.00
54465;BME280;40374;49.480;20.016;2023-05-09T06:37:48;95675.84;;;9.90;100.00
54465;BME280;40374;49.480;20.016;2023-05-09T06:40:16;95666.56;;;10.08;100.00
54465;BME280;40374;49.480;20.016;2023-05-09T06:42:44;95680.09;;;10.24;100.00
54465;BME280;40374;49.480;20.016;2023-05-09T06:45:11;95674.34;;;10.47;100.00
54465;BME280;40374;49.480;20.016;2023-05-09T06:47:39;95686.75;;;10.48;98.34
54465;BME280;40374;49.480;20.016;2023-05-09T06:50:08;95663.38;;;10.59;99.45
54465;BME280;40374;49.480;20.016;2023-05-09T06:52:36;95667.16;;;10.63;96.96
54465;BME280;40374;49.480;20.016;2023-05-09T06:55:03;95668.31;;;10.77;97.97
54465;BME280;40374;49.480;20.016;2023-05-09T06:57:31;95667.59;;;11.08;96.68
54465;BME280;40374;49.480;20.016;2023-05-09T06:59:59;95677.84;;;11.11;91.74
54465;BME280;40374;49.480;20.016;2023-05-09T07:02:27;95661.69;;;11.11;91.99
54465;BME280;40374;49.480;20.016;2023-05-09T07:04:54;95640.66;;;11.08;92.24
54465;BME280;40374;49.480;20.016;2023-05-09T07:07:21;95661.72;;;11.31;89.64
54465;BME280;40374;49.480;20.016;2023-05-09T07:09:49;95668.22;;;11.56;84.62
54465;BME280;40374;49.480;20.016;2023-05-09T07:12:21;95655.81;;;11.86;79.88
54465;BME280;40374;49.480;20.016;2023-05-09T07:14:48;95655.28;;;11.84;77.90
54465;BME280;40374;49.480;20.016;2023-05-09T07:17:16;95658.00;;;11.94;73.80
54465;BME280;40374;49.480;20.016;2023-05-09T07:19:50;95649.34;;;12.17;77.24
54465;BME280;40374;49.480;20.016;2023-05-09T07:22:18;95650.13;;;12.28;74.86
54465;BME280;40374;49.480;20.016;2023-05-09T07:24:45;95646.31;;;12.39;74.02
54465;BME280;40374;49.480;20.016;2023-05-09T07:27:13;95653.47;;;12.85;71.00
54465;BME280;40374;49.480;20.016;2023-05-09T07:29:40;95640.41;;;12.97;71.33
54465;BME280;40374;49.480;20.016;2023-05-09T09:06:20;95581.31;;;13.99;62.62
54465;BME280;40374;49.480;20.016;2023-05-09T09:08:49;95593.22;;;14.51;58.51
54465;BME280;40374;49.480;20.016;2023-05-09T09:11:17;95584.19;;;14.80;56.17
54465;BME280;40374;49.480;20.016;2023-05-09T09:13:46;95589.72;;;15.32;58.11
54465;BME280;40374;49.480;20.016;2023-05-09T09:16:22;95570.47;;;15.99;55.58
54465;BME280;40374;49.480;20.016;2023-05-09T09:18:53;95580.63;;;16.21;52.07
54465;BME280;40374;49.480;20.016;2023-05-09T09:21:24;95575.31;;;16.16;52.90
54465;BME280;40374;49.480;20.016;2023-05-09T09:23:54;95566.19;;;16.26;51.13
54465;BME280;40374;49.480;20.016;2023-05-09T09:26:22;95563.53;;;16.62;52.16
54465;BME280;40374;49.480;20.016;2023-05-09T09:28:52;95568.47;;;16.74;51.24
54465;BME280;40374;49.480;20.016;2023-05-09T09:31:26;95571.69;;;16.62;50.23
54465;BME280;40374;49.480;20.016;2023-05-09T09:33:59;95561.84;;;16.66;51.58
54465;BME280;40374;49.480;20.016;2023-05-09T09:36:28;95574.13;;;16.63;49.48
54465;BME280;40374;49.480;20.016;2023-05-09T09:39:02;95571.31;;;16.41;50.71
54465;BME280;40374;49.480;20.016;2023-05-09T09:41:37;95567.47;;;16.56;50.23
54465;BME280;40374;49.480;20.016;2023-05-09T09:44:07;95564.09;;;17.00;50.12
54465;BME280;40374;49.480;20.016;2023-05-09T09:46:56;95562.56;;;17.22;47.78
54465;BME280;40374;49.480;20.016;2023-05-09T09:49:25;95566.56;;;17.70;47.34
54465;BME280;40374;49.480;20.016;2023-05-09T09:51:57;95560.09;;;17.79;46.90
54465;BME280;40374;49.480;20.016;2023-05-09T09:54:25;95580.88;;;17.98;47.50
54465;BME280;40374;49.480;20.016;2023-05-09T09:56:53;95572.22;;;18.27;45.91
54465;BME280;40374;49.480;20.016;2023-05-09T09:59:23;95562.69;;;18.56;47.47
54465;BME280;40374;49.480;20.016;2023-05-09T10:02:01;95566.63;;;18.81;43.56
54465;BME280;40374;49.480;20.016;2023-05-09T10:04:36;95576.44;;;18.82;43.94
54465;BME280;40374;49.480;20.016;2023-05-09T10:07:08;95563.53;;;18.65;43.79
54465;BME280;40374;49.480;20.016;2023-05-09T10:09:40;95569.22;;;18.86;45.18
54465;BME280;40374;49.480;20.016;2023-05-09T10:12:10;95566.88;;;19.45;44.58
54465;BME280;40374;49.480;20.016;2023-05-09T10:14:40;95568.47;;;19.46;43.22
54465;BME280;40374;49.480;20.016;2023-05-09T10:17:10;95562.72;;;19.74;43.39
54465;BME280;40374;49.480;20.016;2023-05-09T10:19:44;95543.53;;;20.00;42.30
54465;BME280;40374;49.480;20.016;2023-05-09T10:22:14;95560.72;;;19.92;42.26
54465;BME280;40374;49.480;20.016;2023-05-09T10:27:59;95531.00;;;20.76;40.58
54465;BME280;40374;49.480;20.016;2023-05-09T10:30:31;95557.25;;;20.98;38.99
54465;BME280;40374;49.480;20.016;2023-05-09T10:33:03;95547.50;;;20.88;39.52
54465;BME280;40374;49.480;20.016;2023-05-09T10:35:44;95546.41;;;20.81;39.77
54465;BME280;40374;49.480;20.016;2023-05-09T10:38:12;95538.69;;;20.83;39.86
54465;BME280;40374;49.480;20.016;2023-05-09T10:40:40;95550.28;;;20.80;39.12
54465;BME280;40374;49.480;20.016;2023-05-09T10:43:08;95551.13;;;20.72;37.54
54465;BME280;40374;49.480;20.016;2023-05-09T10:45:36;95521.22;;;20.37;39.45
54465;BME280;40374;49.480;20.016;2023-05-09T10:48:05;95536.19;;;19.83;39.53
54465;BME280;40374;49.480;20.016;2023-05-09T10:50:36;95523.19;;;19.63;40.83
54465;BME280;40374;49.480;20.016;2023-05-09T10:53:07;95526.13;;;20.52;40.52
54465;BME280;40374;49.480;20.016;2023-05-09T10:55:52;95509.69;;;21.87;37.66
54465;BME280;40374;49.480;20.016;2023-05-09T10:58:29;95529.97;;;22.32;37.85
54465;BME280;40374;49.480;20.016;2023-05-09T11:00:59;95515.13;;;22.82;37.89
54465;BME280;40374;49.480;20.016;2023-05-09T11:03:28;95518.94;;;23.30;35.13
54465;BME280;40374;49.480;20.016;2023-05-09T11:09:36;95513.69;;;24.89;33.72
54465;BME280;40374;49.480;20.016;2023-05-09T11:12:10;95509.13;;;24.61;34.15
54465;BME280;40374;49.480;20.016;2023-05-09T11:14:43;95509.22;;;24.49;32.92
54465;BME280;40374;49.480;20.016;2023-05-09T11:22:15;95503.50;;;24.10;32.78
54465;BME280;40374;49.480;20.016;2023-05-09T11:24:50;95470.06;;;24.08;32.18
54465;BME280;40374;49.480;20.016;2023-05-09T11:27:23;95495.63;;;24.56;31.81
54465;BME280;40374;49.480;20.016;2023-05-09T11:29:53;95501.06;;;24.88;32.04
54465;BME280;40374;49.480;20.016;2023-05-09T11:32:27;95487.91;;;25.52;31.73
54465;BME280;40374;49.480;20.016;2023-05-09T11:35:15;95491.81;;;26.59;30.32
54465;BME280;40374;49.480;20.016;2023-05-09T11:37:51;95469.63;;;26.79;29.94
54465;BME280;40374;49.480;20.016;2023-05-09T11:40:21;95476.91;;;26.90;30.05
54465;BME280;40374;49.480;20.016;2023-05-09T11:42:50;95473.88;;;26.99;28.72
54465;BME280;40374;49.480;20.016;2023-05-09T11:45:29;95472.19;;;26.64;29.97
54465;BME280;40374;49.480;20.016;2023-05-09T11:47:57;95469.72;;;27.12;29.67
54465;BME280;40374;49.480;20.016;2023-05-09T11:50:25;95451.16;;;26.83;29.26
54465;BME280;40374;49.480;20.016;2023-05-09T11:52:53;95464.31;;;26.40;28.70
54465;BME280;40374;49.480;20.016;2023-05-09T11:55:21;95464.72;;;26.42;29.25
54465;BME280;40374;49.480;20.016;2023-05-09T11:57:51;95472.50;;;26.59;30.49
54465;BME280;40374;49.480;20.016;2023-05-09T12:00:23;95465.66;;;26.03;29.73
54465;BME280;40374;49.480;20.016;2023-05-09T12:02:51;95478.53;;;25.57;30.47
54465;BME280;40374;49.480;20.016;2023-05-09T12:05:20;95469.28;;;25.45;31.69
54465;BME280;40374;49.480;20.016;2023-05-09T12:07:49;95475.00;;;26.45;30.81
54465;BME280;40374;49.480;20.016;2023-05-09T12:10:20;95446.19;;;26.65;29.37
54465;BME280;40374;49.480;20.016;2023-05-09T12:12:51;95468.56;;;26.87;29.66
54465;BME280;40374;49.480;20.016;2023-05-09T12:15:22;95467.59;;;27.29;29.63
54465;BME280;40374;49.480;20.016;2023-05-09T12:18:04;95452.25;;;27.69;32.01
54465;BME280;40374;49.480;20.016;2023-05-09T12:20:47;95436.31;;;27.92;29.15
54465;BME280;40374;49.480;20.016;2023-05-09T12:23:17;95452.81;;;28.23;29.42
54465;BME280;40374;49.480;20.016;2023-05-09T12:25:55;95451.91;;;28.08;28.89
54465;BME280;40374;49.480;20.016;2023-05-09T12:28:23;95449.16;;;28.56;28.50
54465;BME280;40374;49.480;20.016;2023-05-09T12:30:52;95443.88;;;28.99;28.68
54465;BME280;40374;49.480;20.016;2023-05-09T12:33:20;95446.69;;;29.06;27.63
54465;BME280;40374;49.480;20.016;2023-05-09T12:36:00;95448.22;;;28.41;28.50
54465;BME280;40374;49.480;20.016;2023-05-09T12:38:30;95452.53;;;28.39;27.45
54465;BME280;40374;49.480;20.016;2023-05-09T12:41:02;95433.16;;;27.90;27.84
54465;BME280;40374;49.480;20.016;2023-05-09T12:43:35;95434.38;;;27.93;28.21
54465;BME280;40374;49.480;20.016;2023-05-09T12:46:02;95435.91;;;27.90;28.64
54465;BME280;40374;49.480;20.016;2023-05-09T12:48:36;95427.84;;;28.60;27.17
54465;BME280;40374;49.480;20.016;2023-05-09T12:51:05;95426.72;;;28.72;27.69
54465;BME280;40374;49.480;20.016;2023-05-09T12:53:37;95416.75;;;29.30;27.44
54465;BME280;40374;49.480;20.016;2023-05-09T12:56:13;95430.69;;;29.51;27.32
54465;BME280;40374;49.480;20.016;2023-05-09T12:58:54;95438.97;;;28.71;26.76
54465;BME280;40374;49.480;20.016;2023-05-09T13:01:26;95445.50;;;27.29;28.60
54465;BME280;40374;49.480;20.016;2023-05-09T13:04:04;95422.13;;;26.39;29.37
54465;BME280;40374;49.480;20.016;2023-05-09T13:06:33;95428.78;;;26.61;29.71
54465;BME280;40374;49.480;20.016;2023-05-09T13:09:03;95434.84;;;27.01;28.62
54465;BME280;40374;49.480;20.016;2023-05-09T13:11:32;95428.78;;;26.88;28.36
54465;BME280;40374;49.480;20.016;2023-05-09T13:14:01;95408.72;;;26.38;29.32
54465;BME280;40374;49.480;20.016;2023-05-09T13:16:30;95400.41;;;26.11;29.27
54465;BME280;40374;49.480;20.016;2023-05-09T13:18:58;95403.19;;;26.38;28.81
54465;BME280;40374;49.480;20.016;2023-05-09T13:21:25;95394.59;;;26.43;29.08
54465;BME280;40374;49.480;20.016;2023-05-09T13:23:53;95396.88;;;26.94;29.28
54465;BME280;40374;49.480;20.016;2023-05-09T13:26:20;95392.13;;;27.59;29.02
54465;BME280;40374;49.480;20.016;2023-05-09T13:28:48;95391.28;;;27.51;26.84
54465;BME280;40374;49.480;20.016;2023-05-09T13:31:17;95392.88;;;27.52;27.65
54465;BME280;40374;49.480;20.016;2023-05-09T13:33:45;95405.34;;;28.17;27.67
54465;BME280;40374;49.480;20.016;2023-05-09T13:36:14;95395.34;;;28.53;26.62
54465;BME280;40374;49.480;20.016;2023-05-09T13:38:43;95389.81;;;28.50;26.08
54465;BME280;40374;49.480;20.016;2023-05-09T13:41:11;95390.03;;;27.14;26.51
54465;BME280;40374;49.480;20.016;2023-05-09T13:43:40;95399.63;;;26.10;28.09
54465;BME280;40374;49.480;20.016;2023-05-09T13:46:08;95381.31;;;25.99;29.16
54465;BME280;40374;49.480;20.016;2023-05-09T13:48:36;95358.72;;;26.16;29.21
54465;BME280;40374;49.480;20.016;2023-05-09T13:51:03;95386.13;;;27.16;29.50
54465;BME280;40374;49.480;20.016;2023-05-09T13:53:32;95363.53;;;27.06;28.61
54465;BME280;40374;49.480;20.016;2023-05-09T13:56:01;95372.66;;;27.44;28.63
54465;BME280;40374;49.480;20.016;2023-05-09T13:58:28;95384.34;;;28.09;27.88
54465;BME280;40374;49.480;20.016;2023-05-09T14:00:56;95375.25;;;28.64;28.05
54465;BME280;40374;49.480;20.016;2023-05-09T14:03:24;95363.63;;;28.40;27.26
54465;BME280;40374;49.480;20.016;2023-05-09T14:05:51;95359.66;;;28.38;26.57
54465;BME280;40374;49.480;20.016;2023-05-09T14:08:19;95364.69;;;27.77;27.32
54465;BME280;40374;49.480;20.016;2023-05-09T14:10:47;95384.09;;;27.43;26.93
54465;BME280;40374;49.480;20.016;2023-05-09T14:13:15;95370.94;;;26.68;27.74
54465;BME280;40374;49.480;20.016;2023-05-09T14:15:42;95361.59;;;26.77;27.42
54465;BME280;40374;49.480;20.016;2023-05-09T14:18:10;95351.94;;;26.37;27.87
54465;BME280;40374;49.480;20.016;2023-05-09T14:20:43;95368.47;;;26.90;27.60
54465;BME280;40374;49.480;20.016;2023-05-09T14:23:11;95345.69;;;26.97;27.45
54465;BME280;40374;49.480;20.016;2023-05-09T14:25:39;95342.94;;;27.30;26.93
54465;BME280;40374;49.480;20.016;2023-05-09T14:28:07;95362.25;;;27.71;26.69
54465;BME280;40374;49.480;20.016;2023-05-09T14:30:35;95358.72;;;27.30;26.76
54465;BME280;40374;49.480;20.016;2023-05-09T14:33:03;95350.13;;;27.42;27.04
54465;BME280;40374;49.480;20.016;2023-05-09T14:35:30;95345.03;;;27.10;26.78
54465;BME280;40374;49.480;20.016;2023-05-09T14:38:00;95349.72;;;27.06;26.98
54465;BME280;40374;49.480;20.016;2023-05-09T14:40:28;95341.53;;;27.47;27.75
54465;BME280;40374;49.480;20.016;2023-05-09T14:43:01;95330.03;;;27.86;26.80
54465;BME280;40374;49.480;20.016;2023-05-09T14:45:29;95326.47;;;28.38;26.38
54465;BME280;40374;49.480;20.016;2023-05-09T14:47:59;95340.25;;;29.07;26.36
54465;BME280;40374;49.480;20.016;2023-05-09T14:50:27;95330.06;;;29.33;26.31
54465;BME280;40374;49.480;20.016;2023-05-09T14:52:54;95324.56;;;29.69;25.42
54465;BME280;40374;49.480;20.016;2023-05-09T14:55:22;95332.94;;;29.76;26.03
54465;BME280;40374;49.480;20.016;2023-05-09T14:57:50;95333.31;;;29.71;25.51
54465;BME280;40374;49.480;20.016;2023-05-09T15:00:18;95326.97;;;29.52;26.14
54465;BME280;40374;49.480;20.016;2023-05-09T15:02:48;95332.50;;;29.60;26.29